Aviation Digital Data Service (ADDS)

Output produced by TAFs form (0749 UTC 17 October 2017)
found at http://www.aviationweather.gov/adds/tafs/
 
KHKY 170653Z AUTO 32004KT 10SM CLR 08/05 A3028 RMK AO2 SLP241 T00780050
KHKY 170538Z 1706/1806 35005KT P6SM SKC 
     FM171500 05006KT P6SM SKC 
     FM180000 00000KT P6SM SKC